Time;durP1;ratioP1;P1;durP2;ratioP2;P2;SDS_P1;SDS_P2;PMS_P1;PMS_P2;Temp;Humidity;BMP_temperature;BMP_pressure;BME280_temperature;BME280_humidity;BME280_pressure;Samples;Min_cycle;Max_cycle;Signal;HPM_P1;HPM_P2
2023/10/22 00:01:21;;;;;;;0.10;0.10;;;;;;;11.93;85.57;96530.63;5002095;28;20046;-74
2023/10/22 00:03:51;;;;;;;0.20;0.20;;;;;;;12.02;85.01;96527.38;5002444;28;20046;-73
2023/10/22 00:06:19;;;;;;;0.20;0.20;;;;;;;11.80;85.60;96525.47;5000087;28;20135;-73
2023/10/22 00:08:46;;;;;;;0.20;0.20;;;;;;;11.75;85.41;96513.59;5007074;28;20060;-75
2023/10/22 00:11:14;;;;;;;0.20;0.20;;;;;;;11.82;86.26;96518.03;4998210;28;20557;-74
2023/10/22 00:13:42;;;;;;;0.20;0.20;;;;;;;11.90;86.34;96517.72;4999765;28;20074;-73
2023/10/22 00:16:10;;;;;;;0.40;0.40;;;;;;;11.91;85.83;96519.34;5005268;28;20120;-73
2023/10/22 00:18:37;;;;;;;0.10;0.10;;;;;;;11.94;85.63;96519.69;5003154;28;20401;-72
2023/10/22 00:21:08;;;;;;;0.20;0.20;;;;;;;11.90;86.36;96526.53;5002264;28;20061;-72
2023/10/22 00:23:36;;;;;;;0.20;0.20;;;;;;;11.97;85.12;96529.94;5005875;28;20113;-72
2023/10/22 00:26:05;;;;;;;0.20;0.20;;;;;;;12.13;84.93;96529.28;4996188;28;20076;-73
2023/10/22 00:28:34;;;;;;;0.20;0.20;;;;;;;12.09;85.11;96529.94;5019410;28;20041;-73
2023/10/22 00:31:02;;;;;;;0.10;0.10;;;;;;;11.94;85.94;96530.38;5006305;28;20045;-73
2023/10/22 00:33:30;;;;;;;0.10;0.10;;;;;;;11.91;86.36;96519.34;4998577;28;20061;-73
2023/10/22 00:35:58;;;;;;;0.15;0.15;;;;;;;11.84;86.19;96527.44;5000133;28;20070;-73
2023/10/22 00:38:28;;;;;;;0.20;0.20;;;;;;;11.78;85.68;96520.34;5005648;28;20057;-72
2023/10/22 00:40:55;;;;;;;0.20;0.20;;;;;;;11.88;85.50;96519.78;4977143;28;20043;-73
2023/10/22 00:43:23;;;;;;;0.20;0.20;;;;;;;11.81;86.40;96527.09;4999758;28;20047;-72
2023/10/22 00:45:51;;;;;;;0.20;0.20;;;;;;;11.76;86.95;96522.44;5009470;28;20088;-72
2023/10/22 00:48:19;;;;;;;0.25;0.25;;;;;;;11.70;88.22;96528.66;5004244;28;20050;-73
2023/10/22 00:50:47;;;;;;;0.45;0.32;;;;;;;11.76;88.00;96528.59;4999864;28;20128;-72
2023/10/22 00:53:17;;;;;;;0.20;0.20;;;;;;;11.79;87.85;96526.50;5007433;28;20034;-72
2023/10/22 00:55:46;;;;;;;0.20;0.20;;;;;;;11.87;87.69;96527.00;4996818;28;20490;-72
2023/10/22 00:58:16;;;;;;;0.28;0.28;;;;;;;11.92;87.05;96529.00;5001149;28;20070;-72
2023/10/22 01:00:44;;;;;;;0.32;0.32;;;;;;;11.95;86.95;96521.31;5006651;28;20465;-72
2023/10/22 01:03:11;;;;;;;0.28;0.28;;;;;;;11.88;87.45;96522.47;5009305;28;20045;-72
2023/10/22 01:05:39;;;;;;;0.20;0.20;;;;;;;11.85;88.10;96522.91;5009819;28;20037;-73
2023/10/22 01:08:07;;;;;;;0.20;0.20;;;;;;;11.75;88.39;96521.63;5003115;28;20475;-72
2023/10/22 01:10:35;;;;;;;0.40;0.40;;;;;;;11.73;88.36;96522.88;5020573;28;20129;-72
2023/10/22 01:13:05;;;;;;;0.20;0.20;;;;;;;11.86;87.59;96520.00;4995506;28;20093;-72
2023/10/22 01:15:33;;;;;;;0.20;0.20;;;;;;;11.91;86.97;96522.00;5018421;28;20049;-73
2023/10/22 01:18:02;;;;;;;0.20;0.20;;;;;;;11.75;87.46;96529.63;4998349;28;20076;-72
2023/10/22 01:20:30;;;;;;;0.17;0.17;;;;;;;11.66;88.00;96527.50;4994493;28;20101;-72
2023/10/22 01:22:59;;;;;;;0.20;0.20;;;;;;;11.60;87.14;96523.06;5000963;28;20072;-74
2023/10/22 01:25:28;;;;;;;0.13;0.13;;;;;;;11.58;87.03;96523.28;4998065;28;20069;-72
2023/10/22 01:27:58;;;;;;;0.30;0.30;;;;;;;11.59;87.68;96524.09;5000371;28;20050;-74
2023/10/22 01:30:26;;;;;;;0.20;0.20;;;;;;;11.60;87.36;96529.22;5002326;28;20125;-73
2023/10/22 01:32:54;;;;;;;0.20;0.20;;;;;;;11.53;88.19;96525.00;5001766;28;20046;-73
2023/10/22 01:35:21;;;;;;;0.20;0.20;;;;;;;11.55;87.90;96525.59;5002026;28;20090;-73
2023/10/22 01:37:49;;;;;;;0.20;0.20;;;;;;;11.54;88.05;96522.09;5001127;28;20212;-73
2023/10/22 01:40:17;;;;;;;0.10;0.10;;;;;;;11.52;88.02;96526.88;4999423;28;20149;-73
2023/10/22 01:42:46;;;;;;;0.15;0.15;;;;;;;11.53;87.54;96520.47;4972890;28;20069;-73
2023/10/22 01:45:14;;;;;;;0.20;0.20;;;;;;;11.45;87.48;96519.97;5004109;28;20042;-72
2023/10/22 01:47:42;;;;;;;0.20;0.20;;;;;;;11.47;87.27;96528.59;5005466;28;20050;-72
2023/10/22 01:50:10;;;;;;;0.20;0.20;;;;;;;11.50;87.20;96523.63;4994258;28;20129;-72
2023/10/22 01:52:38;;;;;;;0.20;0.20;;;;;;;11.54;86.92;96535.47;5010201;28;20510;-72
2023/10/22 01:55:07;;;;;;;0.15;0.15;;;;;;;11.56;86.09;96535.22;5009014;28;20069;-72
2023/10/22 01:57:35;;;;;;;0.20;0.20;;;;;;;11.51;87.03;96535.13;5001023;28;20062;-72
2023/10/22 02:00:05;;;;;;;0.20;0.20;;;;;;;11.51;86.93;96545.81;5001063;28;20045;-73
2023/10/22 02:02:41;;;;;;;0.28;0.20;;;;;;;11.52;87.47;96547.44;5011036;28;20042;-74
2023/10/22 02:05:09;;;;;;;0.20;0.20;;;;;;;11.48;87.24;96544.41;5008207;28;20108;-74
2023/10/22 02:07:37;;;;;;;0.20;0.20;;;;;;;11.53;87.15;96546.38;5010188;28;20104;-73
2023/10/22 02:10:08;;;;;;;0.20;0.20;;;;;;;11.50;87.26;96544.16;5003333;28;20113;-72
2023/10/22 02:12:36;;;;;;;0.20;0.20;;;;;;;11.43;85.27;96536.22;5008925;28;20091;-72
2023/10/22 02:15:07;;;;;;;0.20;0.20;;;;;;;11.41;85.76;96538.34;5000373;28;20093;-73
2023/10/22 02:17:34;;;;;;;0.10;0.10;;;;;;;11.46;85.94;96537.63;5005005;28;20038;-72
2023/10/22 02:20:08;;;;;;;0.20;0.20;;;;;;;11.30;86.26;96536.41;5007008;28;20065;-72
2023/10/22 02:22:37;;;;;;;0.20;0.20;;;;;;;11.24;86.52;96538.13;5010756;28;20038;-75
2023/10/22 02:25:06;;;;;;;0.30;0.30;;;;;;;11.27;86.31;96540.34;5005105;28;20052;-73
2023/10/22 02:27:35;;;;;;;0.20;0.20;;;;;;;11.23;85.78;96539.16;5006922;28;20046;-74
2023/10/22 02:30:03;;;;;;;0.20;0.20;;;;;;;11.24;85.75;96543.47;5001231;28;20117;-73
2023/10/22 02:32:32;;;;;;;0.30;0.20;;;;;;;11.23;85.52;96552.50;5003562;28;20133;-73
2023/10/22 02:35:01;;;;;;;0.20;0.20;;;;;;;11.12;85.75;96549.78;5005895;28;20535;-73
2023/10/22 02:37:28;;;;;;;0.20;0.20;;;;;;;11.06;85.65;96558.69;4999999;28;20137;-72
2023/10/22 02:39:58;;;;;;;0.20;0.20;;;;;;;11.02;85.92;96555.63;5008438;28;20046;-75
2023/10/22 02:42:27;;;;;;;0.25;0.25;;;;;;;11.04;86.02;96559.72;5011244;28;20077;-73
2023/10/22 02:44:54;;;;;;;0.20;0.20;;;;;;;11.01;85.75;96562.00;5006300;28;20050;-73
2023/10/22 02:47:22;;;;;;;0.50;0.50;;;;;;;10.94;85.86;96562.09;5009120;28;20068;-73
2023/10/22 02:49:54;;;;;;;0.10;0.10;;;;;;;10.83;86.30;96554.00;4998605;28;20057;-73
2023/10/22 02:52:22;;;;;;;0.20;0.20;;;;;;;10.79;86.53;96550.16;4999260;28;20065;-73
2023/10/22 02:54:49;;;;;;;0.25;0.20;;;;;;;10.62;87.40;96548.06;5020387;28;20042;-73
2023/10/22 02:57:17;;;;;;;0.20;0.20;;;;;;;10.63;87.27;96551.53;5011283;28;20046;-73
2023/10/22 02:59:45;;;;;;;0.20;0.20;;;;;;;10.61;87.68;96562.44;5008948;28;20053;-74
2023/10/22 03:02:12;;;;;;;0.28;0.28;;;;;;;10.68;87.18;96562.41;5013835;28;20061;-73
2023/10/22 03:04:40;;;;;;;0.20;0.20;;;;;;;10.65;87.43;96558.31;5014494;28;20045;-73
2023/10/22 03:07:10;;;;;;;0.20;0.20;;;;;;;10.66;87.40;96569.78;5013908;28;20481;-73
2023/10/22 03:09:37;;;;;;;0.20;0.20;;;;;;;10.65;87.54;96574.31;5003207;28;20497;-73
2023/10/22 03:12:06;;;;;;;0.20;0.20;;;;;;;10.70;87.65;96578.16;5022511;28;20049;-73
2023/10/22 03:14:34;;;;;;;0.20;0.20;;;;;;;10.75;87.36;96581.00;5011964;28;20049;-74
2023/10/22 03:17:02;;;;;;;0.20;0.20;;;;;;;10.79;87.47;96583.03;5009470;28;20085;-73
2023/10/22 03:19:29;;;;;;;0.20;0.20;;;;;;;10.79;86.63;96576.88;5006773;28;20045;-73
2023/10/22 03:21:57;;;;;;;0.10;0.10;;;;;;;10.80;86.44;96575.78;5019321;28;20070;-72
2023/10/22 03:24:27;;;;;;;0.10;0.10;;;;;;;10.85;86.17;96584.78;5010960;28;20399;-72
2023/10/22 03:26:54;;;;;;;0.30;0.30;;;;;;;10.84;86.60;96577.00;5006890;28;20042;-73
2023/10/22 03:29:22;;;;;;;0.10;0.10;;;;;;;10.78;86.77;96583.22;5008577;28;20139;-74
2023/10/22 03:31:50;;;;;;;0.10;0.10;;;;;;;10.70;86.70;96581.66;5005198;28;20058;-74
2023/10/22 03:34:19;;;;;;;0.20;0.20;;;;;;;10.65;86.78;96574.31;5005132;28;20494;-74
2023/10/22 03:36:47;;;;;;;0.20;0.20;;;;;;;10.66;86.57;96583.97;5003163;28;20520;-74
2023/10/22 03:39:15;;;;;;;0.20;0.20;;;;;;;10.61;86.84;96578.44;5024528;28;20121;-74
2023/10/22 03:41:45;;;;;;;0.20;0.20;;;;;;;10.59;86.84;96585.84;5009230;28;20033;-74
2023/10/22 03:44:12;;;;;;;0.20;0.20;;;;;;;10.60;86.88;96576.81;5007941;28;20563;-74
2023/10/22 03:46:40;;;;;;;0.10;0.10;;;;;;;10.59;87.16;96577.03;5006105;28;20556;-74
2023/10/22 03:49:08;;;;;;;0.25;0.25;;;;;;;10.62;87.28;96568.59;4996360;28;20043;-74
2023/10/22 03:51:36;;;;;;;0.20;0.20;;;;;;;10.71;87.20;96577.94;5004405;28;20050;-74
2023/10/22 03:54:04;;;;;;;0.32;0.20;;;;;;;10.69;86.90;96577.38;5003507;28;20052;-75
2023/10/22 03:56:34;;;;;;;0.30;0.30;;;;;;;10.72;87.05;96576.09;5004611;28;20058;-75
2023/10/22 03:59:03;;;;;;;0.55;0.55;;;;;;;10.65;86.93;96568.97;5005558;28;20313;-75
2023/10/22 04:01:30;;;;;;;0.20;0.20;;;;;;;10.61;87.76;96583.78;5004573;28;20037;-75
2023/10/22 04:03:58;;;;;;;0.20;0.20;;;;;;;10.60;88.05;96582.16;5004814;28;20039;-74
2023/10/22 04:06:26;;;;;;;0.20;0.20;;;;;;;10.65;88.30;96585.00;5005124;28;20122;-75
2023/10/22 04:08:54;;;;;;;0.30;0.30;;;;;;;10.66;88.65;96591.16;5001631;28;20046;-74
2023/10/22 04:11:21;;;;;;;0.32;0.32;;;;;;;10.74;88.22;96592.72;5003945;28;20064;-75
2023/10/22 04:13:49;;;;;;;0.20;0.20;;;;;;;10.79;87.80;96593.69;5003230;28;20045;-74
2023/10/22 04:16:19;;;;;;;0.10;0.10;;;;;;;10.85;87.76;96600.00;5006256;28;20121;-75
2023/10/22 04:18:47;;;;;;;0.20;0.20;;;;;;;10.83;87.26;96596.72;5003787;28;20104;-74
2023/10/22 04:21:15;;;;;;;0.30;0.30;;;;;;;10.83;87.19;96602.88;4996387;28;20061;-75
2023/10/22 04:23:43;;;;;;;0.30;0.30;;;;;;;10.82;86.61;96611.09;5004292;28;20046;-75
2023/10/22 04:26:12;;;;;;;0.20;0.20;;;;;;;10.78;86.64;96605.41;5004816;28;20042;-75
2023/10/22 04:28:42;;;;;;;0.60;0.60;;;;;;;10.70;87.05;96604.84;5006197;28;20468;-75
2023/10/22 04:31:10;;;;;;;0.20;0.20;;;;;;;10.64;87.87;96604.69;5003521;28;20047;-75
2023/10/22 04:33:39;;;;;;;0.20;0.20;;;;;;;10.64;88.14;96598.53;5010303;28;20069;-74
2023/10/22 04:36:15;;;;;;;0.30;0.30;;;;;;;10.67;87.86;96600.78;5000481;28;20478;-74
2023/10/22 04:38:43;;;;;;;0.20;0.20;;;;;;;10.74;87.28;96606.88;5005212;28;20146;-74
2023/10/22 04:41:11;;;;;;;0.20;0.20;;;;;;;10.63;87.29;96608.41;5005307;28;20571;-74
2023/10/22 04:43:39;;;;;;;0.20;0.20;;;;;;;10.69;87.48;96611.25;5009958;28;20615;-74
2023/10/22 04:46:06;;;;;;;0.70;0.70;;;;;;;10.69;86.77;96609.41;5012765;28;20457;-75
2023/10/22 04:48:34;;;;;;;0.13;0.13;;;;;;;10.80;86.11;96618.50;5006583;28;20620;-75
2023/10/22 04:51:06;;;;;;;0.35;0.35;;;;;;;10.53;87.00;96617.94;5006227;28;20042;-75
2023/10/22 04:53:34;;;;;;;0.25;0.25;;;;;;;10.42;88.33;96627.47;5012822;28;20052;-75
2023/10/22 04:56:03;;;;;;;0.30;0.30;;;;;;;10.45;88.63;96620.88;5011895;28;20057;-74
2023/10/22 04:58:32;;;;;;;0.20;0.20;;;;;;;10.46;88.25;96625.19;5003444;28;20045;-74
2023/10/22 05:01:00;;;;;;;0.20;0.20;;;;;;;10.49;88.18;96632.75;5007161;28;20046;-74
2023/10/22 05:03:28;;;;;;;0.25;0.25;;;;;;;10.51;87.87;96626.16;5002455;28;20046;-75
2023/10/22 05:05:55;;;;;;;0.22;0.22;;;;;;;10.47;88.09;96622.31;5010295;28;20117;-75
2023/10/22 05:08:26;;;;;;;0.20;0.20;;;;;;;10.53;88.20;96626.75;5003327;28;20037;-75
2023/10/22 05:10:54;;;;;;;0.20;0.20;;;;;;;10.54;87.95;96625.72;5002295;28;21517;-74
2023/10/22 05:13:22;;;;;;;0.20;0.20;;;;;;;10.53;88.13;96629.44;5009363;28;20052;-75
2023/10/22 05:15:51;;;;;;;0.20;0.20;;;;;;;10.65;86.84;96626.88;5007195;28;20120;-75
2023/10/22 05:18:19;;;;;;;0.20;0.20;;;;;;;10.65;86.74;96633.03;5001066;28;20035;-75
2023/10/22 05:20:47;;;;;;;0.30;0.30;;;;;;;10.68;86.57;96641.63;5005045;28;20050;-75
2023/10/22 05:23:15;;;;;;;0.30;0.30;;;;;;;10.57;86.61;96643.16;5009646;28;20053;-74
2023/10/22 05:25:44;;;;;;;0.20;0.20;;;;;;;10.62;85.62;96646.78;5008311;28;20045;-75
2023/10/22 05:28:11;;;;;;;0.20;0.20;;;;;;;10.60;86.28;96651.53;5001956;28;20084;-75
2023/10/22 05:30:39;;;;;;;0.20;0.20;;;;;;;10.61;86.17;96652.34;4997503;28;20070;-75
2023/10/22 05:33:07;;;;;;;0.20;0.20;;;;;;;10.56;85.83;96653.00;5002378;28;20046;-75
2023/10/22 05:35:36;;;;;;;0.20;0.20;;;;;;;10.44;85.95;96657.41;5003315;28;20042;-75
2023/10/22 05:38:04;;;;;;;0.25;0.25;;;;;;;10.44;86.44;96649.41;5006357;28;20053;-75
2023/10/22 05:40:36;;;;;;;0.10;0.10;;;;;;;10.47;85.91;96658.84;5012559;28;20144;-75
2023/10/22 05:43:05;;;;;;;0.30;0.30;;;;;;;10.41;86.46;96662.34;5006346;28;20049;-75
2023/10/22 05:45:33;;;;;;;0.35;0.35;;;;;;;10.42;86.37;96661.31;5006411;28;20041;-76
2023/10/22 05:48:01;;;;;;;0.30;0.30;;;;;;;10.30;86.55;96667.34;5004237;28;20102;-75
2023/10/22 05:50:29;;;;;;;0.20;0.20;;;;;;;10.46;86.13;96674.03;4995247;28;20125;-74
2023/10/22 05:52:56;;;;;;;0.20;0.20;;;;;;;10.31;86.38;96676.16;4993778;28;20080;-75
2023/10/22 05:55:24;;;;;;;0.20;0.20;;;;;;;10.20;87.52;96676.84;5002349;28;20046;-74
2023/10/22 05:57:52;;;;;;;0.52;0.52;;;;;;;10.28;86.99;96681.94;5004146;28;20404;-73
2023/10/22 06:00:22;;;;;;;0.20;0.20;;;;;;;10.26;87.67;96686.69;5005067;28;20056;-73
2023/10/22 06:02:50;;;;;;;0.30;0.30;;;;;;;10.31;87.84;96689.50;5008405;28;20053;-74
2023/10/22 06:05:18;;;;;;;0.20;0.20;;;;;;;10.35;87.84;96693.38;5010914;28;20041;-74
2023/10/22 06:07:52;;;;;;;0.10;0.10;;;;;;;10.40;87.82;96698.06;5007345;28;20524;-74
2023/10/22 06:10:20;;;;;;;0.22;0.22;;;;;;;10.30;86.76;96702.03;4997535;28;20117;-74
2023/10/22 06:12:49;;;;;;;0.30;0.30;;;;;;;10.24;86.78;96710.06;5009427;28;20050;-75
2023/10/22 06:15:17;;;;;;;0.20;0.20;;;;;;;10.15;87.12;96722.81;5001721;28;20379;-74
2023/10/22 06:17:47;;;;;;;0.30;0.30;;;;;;;10.17;87.42;96722.59;5004348;28;20041;-74
2023/10/22 06:20:15;;;;;;;0.17;0.17;;;;;;;10.12;87.39;96722.41;5003590;28;20117;-73
2023/10/22 06:22:46;;;;;;;0.30;0.30;;;;;;;10.15;87.31;96725.47;5009309;28;20450;-74
2023/10/22 06:25:14;;;;;;;0.40;0.30;;;;;;;10.18;86.75;96718.91;5009701;28;20070;-74
2023/10/22 06:27:42;;;;;;;0.30;0.30;;;;;;;10.18;86.82;96732.25;5000382;28;20042;-74
2023/10/22 06:30:10;;;;;;;0.20;0.20;;;;;;;10.30;85.92;96726.03;4998847;28;20112;-74
2023/10/22 06:32:38;;;;;;;0.25;0.25;;;;;;;10.21;86.12;96734.50;5000733;28;20097;-73
2023/10/22 06:35:08;;;;;;;0.25;0.25;;;;;;;10.14;86.91;96747.84;4991900;28;20043;-74
2023/10/22 06:37:35;;;;;;;0.28;0.28;;;;;;;10.13;87.02;96742.72;5011716;28;20041;-74
2023/10/22 06:40:04;;;;;;;0.30;0.30;;;;;;;10.12;86.84;96739.22;5010021;28;20421;-73
2023/10/22 06:42:31;;;;;;;0.22;0.22;;;;;;;10.14;86.49;96747.03;5008205;28;20050;-73
2023/10/22 06:44:59;;;;;;;0.20;0.20;;;;;;;10.01;87.25;96744.41;5008260;28;20053;-73
2023/10/22 06:47:28;;;;;;;0.20;0.20;;;;;;;9.97;87.29;96740.56;5011043;28;20053;-73
2023/10/22 06:49:56;;;;;;;0.20;0.20;;;;;;;9.85;88.40;96757.19;5009056;28;20108;-74
2023/10/22 06:52:25;;;;;;;0.20;0.20;;;;;;;9.85;88.82;96748.38;5002928;28;20077;-74
2023/10/22 06:54:56;;;;;;;0.30;0.30;;;;;;;9.91;88.72;96750.19;5000334;28;20121;-73
2023/10/22 06:57:23;;;;;;;0.20;0.20;;;;;;;9.94;88.98;96755.09;5001060;28;20042;-73
2023/10/22 06:59:52;;;;;;;0.20;0.20;;;;;;;10.03;88.29;96761.84;5000181;28;20502;-73
2023/10/22 07:02:20;;;;;;;0.20;0.20;;;;;;;10.03;88.82;96761.00;5003301;28;20042;-75
2023/10/22 07:04:52;;;;;;;0.30;0.30;;;;;;;10.04;88.56;96766.13;5015296;28;20137;-73
2023/10/22 07:07:19;;;;;;;0.30;0.30;;;;;;;10.06;88.77;96757.94;4998951;28;20046;-73
2023/10/22 07:09:49;;;;;;;0.20;0.20;;;;;;;10.14;88.34;96760.34;5006170;28;20522;-73
2023/10/22 07:12:19;;;;;;;0.30;0.30;;;;;;;10.15;88.43;96765.47;4999878;28;20070;-74
2023/10/22 07:14:47;;;;;;;0.20;0.20;;;;;;;10.17;88.49;96763.41;5005767;28;20086;-74
2023/10/22 07:17:15;;;;;;;0.20;0.20;;;;;;;10.22;88.35;96763.63;4992553;28;20042;-74
2023/10/22 07:19:42;;;;;;;0.30;0.30;;;;;;;10.24;88.04;96764.22;5008364;28;20052;-73
2023/10/22 07:22:10;;;;;;;0.20;0.20;;;;;;;10.26;88.16;96774.69;5006236;28;20042;-74
2023/10/22 07:24:38;;;;;;;0.22;0.22;;;;;;;10.26;88.28;96772.03;5008340;28;20052;-73
2023/10/22 07:27:07;;;;;;;0.28;0.22;;;;;;;10.31;88.14;96774.84;5010124;28;20129;-73
2023/10/22 07:29:35;;;;;;;0.30;0.30;;;;;;;10.32;88.62;96775.69;5001941;28;20042;-73
2023/10/22 07:32:03;;;;;;;0.60;0.60;;;;;;;10.37;88.07;96776.69;5000919;28;20459;-73
2023/10/22 07:34:30;;;;;;;0.17;0.17;;;;;;;10.40;88.22;96781.56;5004790;28;20125;-73
2023/10/22 07:36:58;;;;;;;0.35;0.35;;;;;;;10.42;88.50;96778.69;4998545;28;20052;-73
2023/10/22 07:39:25;;;;;;;0.35;0.35;;;;;;;10.51;88.22;96780.91;5004427;28;20506;-73
2023/10/22 07:41:54;;;;;;;0.38;0.38;;;;;;;10.57;87.93;96777.38;4995236;28;20042;-74
2023/10/22 07:44:23;;;;;;;0.30;0.30;;;;;;;10.62;88.23;96777.56;5007797;28;20041;-73
2023/10/22 07:46:50;;;;;;;0.22;0.22;;;;;;;10.72;87.61;96773.59;5014599;28;20048;-73
2023/10/22 07:49:20;;;;;;;0.20;0.20;;;;;;;10.82;87.19;96779.25;5006192;28;20461;-74
2023/10/22 07:51:47;;;;;;;0.32;0.32;;;;;;;10.89;86.10;96772.88;5001060;28;20484;-73
2023/10/22 07:54:15;;;;;;;0.35;0.35;;;;;;;10.94;85.78;96781.03;4999169;28;20785;-73
2023/10/22 07:56:43;;;;;;;0.30;0.30;;;;;;;10.97;85.24;96785.94;5011168;28;20049;-73
2023/10/22 07:59:10;;;;;;;0.15;0.15;;;;;;;11.01;85.04;96783.63;5008302;28;20045;-74
2023/10/22 08:01:39;;;;;;;0.20;0.20;;;;;;;11.06;84.86;96791.81;5014557;28;20378;-73
2023/10/22 08:04:07;;;;;;;0.25;0.25;;;;;;;11.09;84.53;96791.41;5011502;28;21329;-73
2023/10/22 08:06:35;;;;;;;0.20;0.20;;;;;;;11.10;84.55;96792.22;5005479;28;20493;-73
2023/10/22 08:09:03;;;;;;;0.22;0.22;;;;;;;11.14;84.48;96796.06;4997136;28;20133;-73
2023/10/22 08:11:32;;;;;;;0.20;0.20;;;;;;;11.18;84.46;96792.75;4997999;28;20050;-73
2023/10/22 08:13:59;;;;;;;0.20;0.20;;;;;;;11.23;83.82;96794.75;5008865;28;20049;-74
2023/10/22 08:16:27;;;;;;;0.20;0.20;;;;;;;11.28;82.23;96797.59;5013985;28;20046;-73
2023/10/22 08:18:56;;;;;;;0.20;0.20;;;;;;;11.33;82.57;96793.22;5010590;28;20042;-73
2023/10/22 08:21:23;;;;;;;0.35;0.28;;;;;;;11.36;81.92;96794.66;5012748;28;20077;-73
2023/10/22 08:23:51;;;;;;;0.20;0.20;;;;;;;11.43;80.81;96794.59;5008752;28;20050;-74
2023/10/22 08:26:21;;;;;;;0.30;0.30;;;;;;;11.44;81.34;96807.72;5004665;28;20103;-73
2023/10/22 08:28:48;;;;;;;0.55;0.55;;;;;;;11.53;81.45;96806.41;5003992;28;20457;-74
2023/10/22 08:31:16;;;;;;;0.30;0.20;;;;;;;11.59;81.33;96804.72;5004784;28;20045;-73
2023/10/22 08:33:44;;;;;;;0.25;0.25;;;;;;;11.62;80.47;96805.13;5001188;28;20050;-74
2023/10/22 08:36:13;;;;;;;0.22;0.22;;;;;;;11.62;80.27;96809.63;5004318;28;20469;-74
2023/10/22 08:38:40;;;;;;;0.50;0.30;;;;;;;11.62;80.04;96815.81;5006748;28;20042;-74
2023/10/22 08:41:11;;;;;;;0.20;0.20;;;;;;;11.68;80.28;96814.09;5010391;28;20046;-73
2023/10/22 08:43:40;;;;;;;0.20;0.20;;;;;;;11.66;80.21;96822.31;5008028;28;20080;-73
2023/10/22 08:46:08;;;;;;;0.17;0.17;;;;;;;11.72;79.95;96813.44;5011402;28;20549;-73
2023/10/22 08:48:37;;;;;;;0.20;0.20;;;;;;;11.77;79.38;96818.97;5002726;28;20030;-72
2023/10/22 08:51:06;;;;;;;0.28;0.25;;;;;;;11.84;80.05;96818.88;5004764;28;20073;-73
2023/10/22 08:53:35;;;;;;;0.35;0.35;;;;;;;11.92;79.41;96820.47;5011034;28;20070;-73
2023/10/22 08:56:03;;;;;;;0.20;0.20;;;;;;;11.93;78.10;96817.56;5005728;28;20046;-75
2023/10/22 08:58:32;;;;;;;0.22;0.22;;;;;;;12.00;77.71;96820.16;5007869;28;20042;-73
2023/10/22 09:01:00;;;;;;;0.40;0.20;;;;;;;12.00;77.58;96823.66;5003749;28;20401;-74
2023/10/22 09:03:30;;;;;;;0.20;0.20;;;;;;;12.12;77.12;96826.41;5010954;28;20037;-73
2023/10/22 09:05:58;;;;;;;0.30;0.30;;;;;;;12.19;75.92;96829.00;5011879;28;20037;-73
2023/10/22 09:08:43;;;;;;;0.52;0.52;;;;;;;12.29;75.71;96827.44;4986779;28;20512;-76
2023/10/22 09:11:12;;;;;;;0.32;0.32;;;;;;;12.28;74.39;96828.47;5002966;28;20046;-74
2023/10/22 09:13:40;;;;;;;0.20;0.20;;;;;;;12.30;74.47;96831.75;4998021;28;20890;-73
2023/10/22 09:16:08;;;;;;;0.40;0.40;;;;;;;12.42;74.29;96829.97;5007201;28;20120;-74
2023/10/22 09:18:42;;;;;;;0.68;0.32;;;;;;;12.49;73.92;96832.53;5004879;28;20061;-74
2023/10/22 09:21:10;;;;;;;0.32;0.32;;;;;;;12.54;74.25;96829.19;5010046;28;20046;-74
2023/10/22 09:23:38;;;;;;;0.55;0.55;;;;;;;12.65;73.51;96839.16;5005991;28;20056;-74
2023/10/22 09:26:11;;;;;;;0.20;0.20;;;;;;;12.53;72.17;96824.88;5012740;28;20133;-74
2023/10/22 09:28:38;;;;;;;0.35;0.30;;;;;;;12.51;72.29;96833.13;5010388;28;20045;-76
2023/10/22 09:31:06;;;;;;;0.60;0.60;;;;;;;12.43;72.57;96841.47;5006008;28;20413;-76
2023/10/22 09:33:35;;;;;;;0.30;0.30;;;;;;;12.50;73.23;96831.50;5013090;28;20084;-76
2023/10/22 09:36:05;;;;;;;0.20;0.20;;;;;;;12.59;72.42;96827.47;5014630;28;20084;-74
2023/10/22 09:38:43;;;;;;;0.28;0.20;;;;;;;12.63;72.34;96834.00;5001814;28;20037;-74
2023/10/22 09:41:13;;;;;;;0.30;0.30;;;;;;;12.63;71.88;96831.34;5000857;28;20389;-74
2023/10/22 09:43:41;;;;;;;0.20;0.20;;;;;;;12.65;71.82;96839.97;5009748;28;20045;-73
2023/10/22 09:46:09;;;;;;;0.30;0.30;;;;;;;12.66;71.99;96833.56;5009872;28;20053;-76
2023/10/22 09:48:37;;;;;;;0.40;0.35;;;;;;;12.75;71.23;96840.25;5006291;28;20065;-74
2023/10/22 09:51:06;;;;;;;0.20;0.20;;;;;;;12.81;71.43;96838.50;5003654;28;20053;-73
2023/10/22 09:53:38;;;;;;;0.30;0.30;;;;;;;12.87;70.56;96841.06;5003409;28;20038;-73
2023/10/22 09:56:07;;;;;;;;;;;;;;;12.90;70.87;96834.47;5014780;28;20488;-73
2023/10/22 09:58:41;;;;;;;0.30;0.30;;;;;;;12.92;70.14;96837.72;5010243;28;19945;-74
2023/10/22 10:01:13;;;;;;;0.20;0.20;;;;;;;12.98;69.42;96833.34;5009273;28;20042;-73
2023/10/22 10:03:42;;;;;;;0.20;0.20;;;;;;;13.00;68.89;96824.00;5009421;28;20070;-73
2023/10/22 10:06:11;;;;;;;0.20;0.20;;;;;;;12.97;68.79;96842.41;5003649;28;20041;-73
2023/10/22 10:08:39;;;;;;;0.30;0.30;;;;;;;13.06;67.57;96816.94;5011861;28;20116;-74
2023/10/22 10:11:09;;;;;;;0.30;0.30;;;;;;;13.12;68.05;96816.81;5000739;28;20494;-73
2023/10/22 10:13:39;;;;;;;0.28;0.20;;;;;;;13.19;67.17;96822.91;5003005;28;20101;-73
2023/10/22 10:16:07;;;;;;;0.30;0.30;;;;;;;13.12;66.69;96824.84;5009185;28;20056;-73
2023/10/22 10:19:01;;;;;;;0.22;0.22;;;;;;;13.10;66.21;96807.38;5000818;28;20074;-73
2023/10/22 10:21:45;;;;;;;0.20;0.20;;;;;;;13.07;66.56;96813.22;5002183;28;20054;-74
2023/10/22 10:24:23;;;;;;;0.30;0.30;;;;;;;13.02;66.56;96824.59;5011622;28;20161;-74
2023/10/22 10:26:55;;;;;;;0.22;0.20;;;;;;;13.07;66.95;96826.59;4996804;28;20518;-73
2023/10/22 10:29:25;;;;;;;0.20;0.20;;;;;;;13.18;66.64;96831.22;4994299;28;20038;-74
2023/10/22 10:31:54;;;;;;;0.32;0.32;;;;;;;13.30;66.98;96837.38;5005427;28;20046;-74
2023/10/22 10:34:26;;;;;;;0.38;0.38;;;;;;;13.45;67.03;96829.72;5001690;28;20122;-73
2023/10/22 10:36:55;;;;;;;0.20;0.20;;;;;;;13.53;66.36;96825.88;5010680;28;20390;-74
2023/10/22 10:39:42;;;;;;;0.30;0.30;;;;;;;13.54;65.69;96819.47;4998584;28;20045;-73
2023/10/22 10:42:10;;;;;;;0.40;0.40;;;;;;;13.61;65.92;96817.47;4992963;28;20046;-75
2023/10/22 10:45:06;;;;;;;0.40;0.30;;;;;;;13.75;66.16;96820.75;5010440;28;20042;-74
2023/10/22 10:47:35;;;;;;;0.30;0.30;;;;;;;13.66;65.41;96822.16;4993561;28;20069;-73
2023/10/22 10:50:04;;;;;;;0.38;0.20;;;;;;;13.61;65.71;96830.88;5004988;28;20042;-74
2023/10/22 10:52:32;;;;;;;0.40;0.20;;;;;;;13.56;65.95;96831.59;5000260;28;20113;-74
2023/10/22 10:55:01;;;;;;;0.30;0.30;;;;;;;13.61;65.46;96841.63;5011731;28;20069;-74
2023/10/22 10:57:36;;;;;;;0.25;0.25;;;;;;;13.71;65.20;96838.34;5016488;28;20064;-74
2023/10/22 11:00:09;;;;;;;0.30;0.30;;;;;;;13.75;65.04;96834.16;5003311;28;20042;-73
2023/10/22 11:02:41;;;;;;;0.45;0.45;;;;;;;13.82;64.55;96849.09;5000831;28;20070;-73
2023/10/22 11:05:09;;;;;;;0.20;0.20;;;;;;;13.81;64.39;96841.28;5008374;28;20053;-76
2023/10/22 11:07:37;;;;;;;0.20;0.20;;;;;;;13.73;64.28;96845.13;5011879;28;20497;-74
2023/10/22 11:10:09;;;;;;;0.30;0.30;;;;;;;13.70;63.94;96850.16;5001325;28;20049;-73
2023/10/22 11:12:37;;;;;;;;;;;;;;;13.65;64.42;96845.47;5001393;28;20042;-73
2023/10/22 11:15:10;;;;;;;0.22;0.22;;;;;;;13.57;65.10;96835.91;5005017;28;19921;-73
2023/10/22 11:17:39;;;;;;;0.47;0.32;;;;;;;13.59;65.41;96841.88;5012146;28;20041;-74
2023/10/22 11:20:08;;;;;;;0.40;0.40;;;;;;;13.53;65.44;96850.81;5017353;28;20046;-76
2023/10/22 11:22:36;;;;;;;0.40;0.40;;;;;;;13.48;64.69;96848.03;5010300;28;20052;-77
2023/10/22 11:25:07;;;;;;;0.20;0.20;;;;;;;13.46;63.61;96852.81;5014843;28;20108;-75
2023/10/22 11:27:36;;;;;;;0.20;0.20;;;;;;;13.34;63.81;96851.16;5000455;28;20050;-77
2023/10/22 11:30:05;;;;;;;0.40;0.40;;;;;;;13.41;63.42;96849.16;5009967;28;20041;-76
2023/10/22 11:32:35;;;;;;;0.32;0.32;;;;;;;13.54;61.90;96847.09;5017708;28;20096;-76
2023/10/22 11:35:07;;;;;;;0.30;0.30;;;;;;;13.66;62.52;96854.34;5006306;28;20394;-76
2023/10/22 11:37:38;;;;;;;0.30;0.30;;;;;;;13.69;62.02;96851.19;5018752;28;20486;-76
2023/10/22 11:40:24;;;;;;;0.30;0.30;;;;;;;13.75;61.65;96851.06;5009853;28;20038;-74
2023/10/22 11:42:52;;;;;;;0.60;0.60;;;;;;;13.83;60.77;96850.72;5014921;28;20476;-75